Time;durP1;ratioP1;P1;durP2;ratioP2;P2;SDS_P1;SDS_P2;PMS_P1;PMS_P2;Temp;Humidity;BMP_temperature;BMP_pressure;BME280_temperature;BME280_humidity;BME280_pressure;Samples;Min_cycle;Max_cycle;Signal;HPM_P1;HPM_P2
2023/08/29 00:01:18;;;;;;;;;;;15.20;99.90;;;;;;8374713;28;19924;-69
2023/08/29 00:05:20;;;;;;;;;;;15.20;99.90;;;;;;8373085;28;20342;-69
2023/08/29 00:09:22;;;;;;;;;;;15.00;99.90;;;;;;8376862;28;19925;-69
2023/08/29 00:13:24;;;;;;;;;;;15.00;99.90;;;;;;8373765;28;19939;-69
2023/08/29 00:17:26;;;;;;;;;;;15.00;99.90;;;;;;8376575;28;20372;-69
2023/08/29 00:21:28;;;;;;;;;;;15.00;99.90;;;;;;8379873;28;19929;-69
2023/08/29 00:25:29;;;;;;;;;;;14.90;99.90;;;;;;8377687;28;19925;-69
2023/08/29 00:29:31;;;;;;;;;;;14.80;99.90;;;;;;8369867;28;19936;-69
2023/08/29 00:33:33;;;;;;;;;;;14.70;99.90;;;;;;8374948;28;19932;-69
2023/08/29 00:37:34;;;;;;;;;;;14.70;99.90;;;;;;8383104;28;19928;-69
2023/08/29 00:41:36;;;;;;;;;;;14.70;99.90;;;;;;8372156;28;20391;-69
2023/08/29 00:45:38;;;;;;;;;;;14.70;99.90;;;;;;8375984;28;19935;-69
2023/08/29 00:49:40;;;;;;;;;;;14.60;99.90;;;;;;8373249;28;19957;-69
2023/08/29 00:53:42;;;;;;;;;;;14.60;99.90;;;;;;8378334;28;19949;-69
2023/08/29 00:57:43;;;;;;;;;;;14.50;99.90;;;;;;8371101;28;19931;-69
2023/08/29 01:01:46;;;;;;;;;;;14.50;99.90;;;;;;8376904;28;20372;-69
2023/08/29 01:05:48;;;;;;;;;;;14.50;99.90;;;;;;8372908;28;19933;-69
2023/08/29 01:09:49;;;;;;;;;;;14.40;99.90;;;;;;8383216;28;19958;-69
2023/08/29 01:13:58;;;;;;;;;;;14.40;99.90;;;;;;8376798;28;20371;-69
2023/08/29 01:18:02;;;;;;;;;;;14.40;99.90;;;;;;8384905;28;19928;-69
2023/08/29 01:22:23;;;;;;;;;;;14.30;99.90;;;;;;8373678;28;19924;-69
2023/08/29 01:26:26;;;;;;;;;;;14.30;99.90;;;;;;8372003;28;20342;-69
2023/08/29 01:30:28;;;;;;;;;;;14.30;99.90;;;;;;8369350;28;20269;-69
2023/08/29 01:34:30;;;;;;;;;;;14.20;99.90;;;;;;8368890;28;19932;-69
2023/08/29 01:38:32;;;;;;;;;;;14.20;99.90;;;;;;8355969;28;20363;-69
2023/08/29 01:42:36;;;;;;;;;;;14.20;99.90;;;;;;8374211;28;19928;-69
2023/08/29 01:46:38;;;;;;;;;;;14.10;99.90;;;;;;8379444;28;20300;-69
2023/08/29 01:50:40;;;;;;;;;;;14.10;99.90;;;;;;8371035;28;20003;-69
2023/08/29 01:54:42;;;;;;;;;;;14.10;99.90;;;;;;8379208;28;19924;-69
2023/08/29 01:58:44;;;;;;;;;;;14.00;99.90;;;;;;8369508;28;19924;-69
2023/08/29 02:02:46;;;;;;;;;;;14.00;99.90;;;;;;8372499;28;19925;-69
2023/08/29 02:06:49;;;;;;;;;;;13.90;99.90;;;;;;8372211;28;19969;-69
2023/08/29 02:10:50;;;;;;;;;;;13.90;99.90;;;;;;8384654;28;19978;-69
2023/08/29 02:14:52;;;;;;;;;;;13.80;99.90;;;;;;8380217;28;20371;-69
2023/08/29 02:18:54;;;;;;;;;;;13.90;99.90;;;;;;8376908;28;20299;-69
2023/08/29 02:23:04;;;;;;;;;;;13.80;99.90;;;;;;8376924;28;19932;-69
2023/08/29 02:27:06;;;;;;;;;;;13.80;99.90;;;;;;8354188;28;19925;-69
2023/08/29 02:31:09;;;;;;;;;;;13.80;99.90;;;;;;8373484;28;19929;-69
2023/08/29 02:35:11;;;;;;;;;;;13.70;99.90;;;;;;8376350;28;19928;-69
2023/08/29 02:39:13;;;;;;;;;;;13.70;99.90;;;;;;8351746;28;19924;-69
2023/08/29 02:43:14;;;;;;;;;;;13.70;99.90;;;;;;8365490;28;19935;-69
2023/08/29 02:47:16;;;;;;;;;;;13.60;99.90;;;;;;8382741;28;20363;-69
2023/08/29 02:51:18;;;;;;;;;;;13.60;99.90;;;;;;8366850;28;19932;-69
2023/08/29 02:55:20;;;;;;;;;;;13.50;99.90;;;;;;8371145;28;19929;-69
2023/08/29 03:14:31;;;;;;;;;;;13.40;99.90;;;;;;8372705;28;19953;-69
2023/08/29 03:18:33;;;;;;;;;;;13.40;99.90;;;;;;8375884;28;20363;-69
2023/08/29 03:22:35;;;;;;;;;;;13.40;99.90;;;;;;8379582;28;19924;-69
2023/08/29 03:26:36;;;;;;;;;;;13.40;99.90;;;;;;8373634;28;19975;-69
2023/08/29 03:30:38;;;;;;;;;;;13.30;99.90;;;;;;8356848;28;19929;-69
2023/08/29 03:34:40;;;;;;;;;;;13.30;99.90;;;;;;8368523;28;19928;-69
2023/08/29 03:38:42;;;;;;;;;;;13.30;99.90;;;;;;8364679;28;20047;-69
2023/08/29 03:42:43;;;;;;;;;;;13.30;99.90;;;;;;8379745;28;20267;-69
2023/08/29 03:46:45;;;;;;;;;;;13.20;99.90;;;;;;8381423;28;19924;-69
2023/08/29 03:50:48;;;;;;;;;;;13.20;99.90;;;;;;8357299;28;19933;-69
2023/08/29 03:54:51;;;;;;;;;;;13.20;99.90;;;;;;8373419;28;19929;-69
2023/08/29 03:58:53;;;;;;;;;;;13.10;99.90;;;;;;8378366;28;19928;-69
2023/08/29 04:02:55;;;;;;;;;;;13.00;99.90;;;;;;8367359;28;19925;-69
2023/08/29 04:06:56;;;;;;;;;;;13.00;99.90;;;;;;8379136;28;20425;-69
2023/08/29 04:10:58;;;;;;;;;;;12.90;99.90;;;;;;8377324;28;19928;-69
2023/08/29 04:15:00;;;;;;;;;;;12.80;99.90;;;;;;8382636;28;20295;-69
2023/08/29 04:19:01;;;;;;;;;;;12.80;99.90;;;;;;8375986;28;19924;-69
2023/08/29 04:23:03;;;;;;;;;;;12.80;99.90;;;;;;8373673;28;19924;-69
2023/08/29 04:27:05;;;;;;;;;;;12.80;99.90;;;;;;8380513;28;20390;-69
2023/08/29 04:31:11;;;;;;;;;;;12.70;99.90;;;;;;8368511;28;19925;-69
2023/08/29 04:35:13;;;;;;;;;;;12.70;99.90;;;;;;8378604;28;19936;-68
2023/08/29 04:39:15;;;;;;;;;;;12.70;99.90;;;;;;8377182;28;19935;-68
2023/08/29 04:43:16;;;;;;;;;;;12.60;99.90;;;;;;8381668;28;19924;-69
2023/08/29 04:47:18;;;;;;;;;;;12.60;99.90;;;;;;8380264;28;19929;-69
2023/08/29 04:51:22;;;;;;;;;;;12.60;99.90;;;;;;8364416;28;19925;-69
2023/08/29 04:55:25;;;;;;;;;;;12.60;99.90;;;;;;8357516;28;19929;-69
2023/08/29 04:59:26;;;;;;;;;;;12.60;99.90;;;;;;8362603;28;20401;-69
2023/08/29 05:03:28;;;;;;;;;;;12.60;99.90;;;;;;8377418;28;19991;-68
2023/08/29 05:07:30;;;;;;;;;;;12.60;99.90;;;;;;8380195;28;19978;-69
2023/08/29 05:11:31;;;;;;;;;;;12.60;99.90;;;;;;8370409;28;19940;-69
2023/08/29 05:15:33;;;;;;;;;;;12.60;99.90;;;;;;8376150;28;19925;-69
2023/08/29 05:19:35;;;;;;;;;;;12.60;99.90;;;;;;8375335;28;20339;-69
2023/08/29 05:23:37;;;;;;;;;;;12.60;99.90;;;;;;8377522;28;19925;-69
2023/08/29 05:27:38;;;;;;;;;;;12.60;99.90;;;;;;8373080;28;19929;-69
2023/08/29 05:31:40;;;;;;;;;;;12.60;99.90;;;;;;8369556;28;19928;-69
2023/08/29 05:45:56;;;;;;;;;;;12.60;99.90;;;;;;8374915;28;20079;-69
2023/08/29 05:49:58;;;;;;;;;;;12.70;99.90;;;;;;8376359;28;19925;-69
2023/08/29 05:53:59;;;;;;;;;;;12.80;99.90;;;;;;8370681;28;19925;-69
2023/08/29 05:58:01;;;;;;;;;;;12.90;99.90;;;;;;8376178;28;19924;-69
2023/08/29 06:02:05;;;;;;;;;;;13.10;99.90;;;;;;8367866;28;19978;-69
2023/08/29 06:06:07;;;;;;;;;;;13.30;99.90;;;;;;8368150;28;20391;-69
2023/08/29 06:10:09;;;;;;;;;;;13.40;99.90;;;;;;8349955;28;19974;-69
2023/08/29 06:14:10;;;;;;;;;;;13.50;99.90;;;;;;8349037;28;20303;-69
2023/08/29 06:18:12;;;;;;;;;;;13.70;99.90;;;;;;8366174;28;19932;-69
2023/08/29 06:22:14;;;;;;;;;;;13.80;99.90;;;;;;8363714;28;19925;-69
2023/08/29 06:26:16;;;;;;;;;;;13.90;99.90;;;;;;8369586;28;19925;-69
2023/08/29 06:30:17;;;;;;;;;;;14.00;99.90;;;;;;8369357;28;19983;-69
2023/08/29 06:34:20;;;;;;;;;;;14.00;99.90;;;;;;8365713;28;20299;-69
2023/08/29 06:38:22;;;;;;;;;;;14.00;99.90;;;;;;8370289;28;19924;-69
2023/08/29 06:42:23;;;;;;;;;;;14.10;99.90;;;;;;8366522;28;19924;-69
2023/08/29 06:46:25;;;;;;;;;;;14.10;99.90;;;;;;8359044;28;19929;-69
2023/08/29 06:50:26;;;;;;;;;;;14.10;99.90;;;;;;8369683;28;19959;-69
2023/08/29 06:54:29;;;;;;;;;;;14.20;99.90;;;;;;8369535;28;19925;-69
2023/08/29 06:58:32;;;;;;;;;;;14.20;99.90;;;;;;8369107;28;20305;-69
2023/08/29 07:02:34;;;;;;;;;;;14.30;99.90;;;;;;8374615;28;20045;-69
2023/08/29 07:06:35;;;;;;;;;;;14.30;99.90;;;;;;8371120;28;20364;-69
2023/08/29 07:10:37;;;;;;;;;;;14.40;99.90;;;;;;8377400;28;19955;-69
2023/08/29 07:14:39;;;;;;;;;;;14.50;99.90;;;;;;8365649;28;20430;-69
2023/08/29 07:18:40;;;;;;;;;;;14.60;99.90;;;;;;8373068;28;19971;-69
2023/08/29 07:22:43;;;;;;;;;;;14.70;99.90;;;;;;8350255;28;19925;-69
2023/08/29 07:26:44;;;;;;;;;;;14.80;99.90;;;;;;8370656;28;19928;-69
2023/08/29 07:30:47;;;;;;;;;;;14.90;99.90;;;;;;8374022;28;20050;-69
2023/08/29 07:34:50;;;;;;;;;;;15.00;99.90;;;;;;8382657;28;19931;-69
2023/08/29 07:38:52;;;;;;;;;;;15.00;99.90;;;;;;8377537;28;19925;-69
2023/08/29 07:42:54;;;;;;;;;;;15.10;99.90;;;;;;8373460;28;19924;-69
2023/08/29 07:46:56;;;;;;;;;;;15.20;99.90;;;;;;8373652;28;19932;-69
2023/08/29 07:51:14;;;;;;;;;;;15.20;99.90;;;;;;8365570;28;19979;-69
2023/08/29 07:55:16;;;;;;;;;;;15.30;99.90;;;;;;8377806;28;20283;-68
2023/08/29 07:59:18;;;;;;;;;;;15.30;99.90;;;;;;8376051;28;19925;-69
2023/08/29 08:03:19;;;;;;;;;;;15.40;99.90;;;;;;8370257;28;19925;-69
2023/08/29 08:07:21;;;;;;;;;;;15.50;99.90;;;;;;8370334;28;19932;-69
2023/08/29 08:11:23;;;;;;;;;;;15.50;99.90;;;;;;8375093;28;20345;-69
2023/08/29 08:15:24;;;;;;;;;;;15.60;99.90;;;;;;8358551;28;19924;-69
2023/08/29 08:19:26;;;;;;;;;;;15.70;99.90;;;;;;8372691;28;19931;-69
2023/08/29 08:23:28;;;;;;;;;;;15.80;99.90;;;;;;8375437;28;19932;-69
2023/08/29 08:27:29;;;;;;;;;;;15.90;99.90;;;;;;8372509;28;19931;-69
2023/08/29 08:31:32;;;;;;;;;;;16.00;99.90;;;;;;8367125;28;19924;-69
2023/08/29 08:35:34;;;;;;;;;;;16.00;99.90;;;;;;8364125;28;19925;-69
2023/08/29 08:39:39;;;;;;;;;;;16.10;99.90;;;;;;8378689;28;19983;-69
2023/08/29 08:43:41;;;;;;;;;;;16.20;99.90;;;;;;8372852;28;19952;-69
2023/08/29 08:47:42;;;;;;;;;;;16.30;99.90;;;;;;8355905;28;19940;-69
2023/08/29 08:51:45;;;;;;;;;;;16.40;99.90;;;;;;8364034;28;19937;-69
2023/08/29 08:55:47;;;;;;;;;;;16.40;99.90;;;;;;8364388;28;19971;-69
2023/08/29 08:59:49;;;;;;;;;;;16.40;99.90;;;;;;8365594;28;19925;-68
2023/08/29 09:03:50;;;;;;;;;;;16.50;99.90;;;;;;8365991;28;19929;-69
2023/08/29 09:07:52;;;;;;;;;;;16.50;99.90;;;;;;8369692;28;20368;-69
2023/08/29 09:11:55;;;;;;;;;;;16.60;99.90;;;;;;8366520;28;19932;-69
2023/08/29 09:16:00;;;;;;;;;;;16.70;99.90;;;;;;8378323;28;19994;-69
2023/08/29 09:20:05;;;;;;;;;;;16.70;99.90;;;;;;8380602;28;19925;-69
2023/08/29 09:24:10;;;;;;;;;;;16.80;99.90;;;;;;8377845;28;20057;-69
2023/08/29 09:28:11;;;;;;;;;;;16.90;99.90;;;;;;8362941;28;19932;-69
2023/08/29 09:32:14;;;;;;;;;;;16.90;99.90;;;;;;8365620;28;19931;-69
2023/08/29 09:36:15;;;;;;;;;;;17.00;99.90;;;;;;8363504;28;19935;-69
2023/08/29 09:40:18;;;;;;;;;;;17.00;99.90;;;;;;8377410;28;19924;-69
2023/08/29 09:44:39;;;;;;;;;;;17.00;99.90;;;;;;8375106;28;19929;-69
2023/08/29 09:48:54;;;;;;;;;;;17.00;99.90;;;;;;8374015;28;19936;-69
2023/08/29 09:52:56;;;;;;;;;;;17.00;99.90;;;;;;8367272;28;19924;-69
2023/08/29 09:56:59;;;;;;;;;;;17.10;99.90;;;;;;8367522;28;20371;-69
2023/08/29 10:01:04;;;;;;;;;;;17.10;99.90;;;;;;8370094;28;19925;-69
2023/08/29 10:05:08;;;;;;;;;;;17.30;99.90;;;;;;8377150;28;20375;-69
2023/08/29 10:09:10;;;;;;;;;;;17.30;99.90;;;;;;8364229;28;19968;-69
2023/08/29 10:13:13;;;;;;;;;;;17.40;99.90;;;;;;8372480;28;19978;-69
2023/08/29 10:17:15;;;;;;;;;;;17.50;99.90;;;;;;8365067;28;19955;-69
2023/08/29 10:21:31;;;;;;;;;;;17.50;99.90;;;;;;8375246;28;20321;-69
2023/08/29 10:25:33;;;;;;;;;;;17.60;99.90;;;;;;8354595;28;20177;-69
2023/08/29 10:29:35;;;;;;;;;;;17.80;99.90;;;;;;8369259;28;20398;-69
2023/08/29 10:33:37;;;;;;;;;;;17.80;99.90;;;;;;8362036;28;19951;-69
2023/08/29 10:37:39;;;;;;;;;;;17.80;99.90;;;;;;8373567;28;19974;-69
2023/08/29 10:41:44;;;;;;;;;;;17.90;99.90;;;;;;8360232;28;19924;-69
2023/08/29 10:45:53;;;;;;;;;;;17.90;99.90;;;;;;8363369;28;19929;-69
2023/08/29 10:49:56;;;;;;;;;;;17.90;99.90;;;;;;8371795;28;19932;-69
2023/08/29 10:54:06;;;;;;;;;;;17.90;99.90;;;;;;8381411;28;19931;-69
2023/08/29 10:58:26;;;;;;;;;;;17.80;99.90;;;;;;8376002;28;19931;-69
2023/08/29 11:02:31;;;;;;;;;;;17.80;99.90;;;;;;8373270;28;20405;-69
2023/08/29 11:06:55;;;;;;;;;;;17.80;99.90;;;;;;8371298;28;20276;-69
2023/08/29 11:11:12;;;;;;;;;;;17.80;99.90;;;;;;8367724;28;19925;-69
2023/08/29 11:15:14;;;;;;;;;;;17.80;99.90;;;;;;8370816;28;19925;-69
2023/08/29 11:19:53;;;;;;;;;;;17.90;99.90;;;;;;8355521;28;19955;-69
2023/08/29 11:23:54;;;;;;;;;;;17.90;99.90;;;;;;8375297;28;20372;-68
2023/08/29 11:28:14;;;;;;;;;;;18.00;99.90;;;;;;8362035;28;20338;-69
2023/08/29 11:32:16;;;;;;;;;;;18.00;99.90;;;;;;8355416;28;20011;-68
2023/08/29 11:36:18;;;;;;;;;;;18.10;99.90;;;;;;8375380;28;20276;-69
2023/08/29 11:40:20;;;;;;;;;;;18.30;99.90;;;;;;8374474;28;19936;-69
2023/08/29 11:44:35;;;;;;;;;;;18.40;99.90;;;;;;8368865;28;19962;-68
2023/08/29 11:48:56;;;;;;;;;;;18.60;99.90;;;;;;8372917;28;20374;-69
2023/08/29 11:52:58;;;;;;;;;;;18.60;99.90;;;;;;8388384;28;20298;-68
2023/08/29 11:57:00;;;;;;;;;;;18.60;99.90;;;;;;8378468;28;19931;-68
2023/08/29 12:01:07;;;;;;;;;;;18.50;99.90;;;;;;8368872;28;19932;-69
2023/08/29 12:05:27;;;;;;;;;;;18.50;99.90;;;;;;8369508;28;19925;-69
2023/08/29 12:09:28;;;;;;;;;;;18.50;99.90;;;;;;8385495;28;20360;-69
2023/08/29 12:13:30;;;;;;;;;;;18.50;99.90;;;;;;8377819;28;19925;-69
2023/08/29 12:17:38;;;;;;;;;;;18.50;99.90;;;;;;8360792;28;19946;-69
2023/08/29 12:31:46;;;;;;;;;;;18.80;99.90;;;;;;8338922;28;19923;-69
2023/08/29 12:35:48;;;;;;;;;;;18.90;99.90;;;;;;8389286;28;19936;-69
2023/08/29 12:39:51;;;;;;;;;;;19.00;99.90;;;;;;8376319;28;19925;-69
2023/08/29 12:43:53;;;;;;;;;;;19.00;99.90;;;;;;8373634;28;19932;-69
2023/08/29 12:47:55;;;;;;;;;;;19.20;99.90;;;;;;8374654;28;19925;-69
2023/08/29 12:51:57;;;;;;;;;;;19.30;99.90;;;;;;8381345;28;19947;-69
2023/08/29 12:55:58;;;;;;;;;;;19.40;99.90;;;;;;8375637;28;20287;-69
2023/08/29 13:00:00;;;;;;;;;;;19.60;99.90;;;;;;8377368;28;19924;-69
2023/08/29 13:04:03;;;;;;;;;;;19.70;99.90;;;;;;8375919;28;20591;-69
2023/08/29 13:08:07;;;;;;;;;;;19.70;99.90;;;;;;8369319;28;19924;-69
2023/08/29 13:12:09;;;;;;;;;;;19.60;99.90;;;;;;8384106;28;19924;-69
2023/08/29 13:16:11;;;;;;;;;;;19.60;99.90;;;;;;8375236;28;19948;-69
2023/08/29 13:20:13;;;;;;;;;;;19.60;99.90;;;;;;8372346;28;19924;-70
2023/08/29 13:24:15;;;;;;;;;;;19.60;99.90;;;;;;8377243;28;19929;-69
2023/08/29 13:28:16;;;;;;;;;;;19.60;99.90;;;;;;8377414;28;19925;-69
2023/08/29 13:32:18;;;;;;;;;;;19.60;99.90;;;;;;8370037;28;20390;-69
2023/08/29 13:36:20;;;;;;;;;;;19.40;99.90;;;;;;8373729;28;20154;-69
2023/08/29 13:40:21;;;;;;;;;;;19.40;99.90;;;;;;8373034;28;19932;-69
2023/08/29 13:44:23;;;;;;;;;;;19.30;99.90;;;;;;8363647;28;19997;-69
2023/08/29 13:48:25;;;;;;;;;;;19.20;99.90;;;;;;8364934;28;19929;-69
2023/08/29 13:52:27;;;;;;;;;;;19.10;99.90;;;;;;8362816;28;19925;-69
2023/08/29 13:56:28;;;;;;;;;;;19.10;99.90;;;;;;8370300;28;19925;-69
2023/08/29 14:00:30;;;;;;;;;;;19.00;99.90;;;;;;8372458;28;19932;-69
2023/08/29 14:04:32;;;;;;;;;;;18.90;99.90;;;;;;8367312;28;19929;-69
2023/08/29 14:08:33;;;;;;;;;;;18.80;99.90;;;;;;8373090;28;19985;-69
2023/08/29 14:12:35;;;;;;;;;;;18.70;99.90;;;;;;8369852;28;19928;-69
2023/08/29 14:16:36;;;;;;;;;;;18.60;99.90;;;;;;8386134;28;20371;-69
2023/08/29 14:20:44;;;;;;;;;;;18.50;99.90;;;;;;8370880;28;19924;-69
2023/08/29 14:24:46;;;;;;;;;;;18.40;99.90;;;;;;8373278;28;19986;-69
2023/08/29 14:28:47;;;;;;;;;;;18.30;99.90;;;;;;8378458;28;19968;-69
2023/08/29 14:32:49;;;;;;;;;;;18.20;99.90;;;;;;8379381;28;20325;-69
2023/08/29 14:36:51;;;;;;;;;;;18.20;99.90;;;;;;8383612;28;19982;-69
2023/08/29 14:40:52;;;;;;;;;;;18.10;99.90;;;;;;8376542;28;19925;-69
2023/08/29 14:44:56;;;;;;;;;;;18.10;99.90;;;;;;8371030;28;19928;-69
2023/08/29 14:48:58;;;;;;;;;;;18.10;99.90;;;;;;8371018;28;19978;-69
2023/08/29 14:53:00;;;;;;;;;;;18.10;99.90;;;;;;8373928;28;19928;-69
2023/08/29 14:57:03;;;;;;;;;;;18.10;99.90;;;;;;8372849;28;19924;-69
2023/08/29 15:01:07;;;;;;;;;;;18.10;99.90;;;;;;8372883;28;20021;-69
2023/08/29 15:05:09;;;;;;;;;;;18.00;99.90;;;;;;8372517;28;19986;-69
2023/08/29 15:09:13;;;;;;;;;;;18.00;99.90;;;;;;8369097;28;19925;-69
2023/08/29 15:13:15;;;;;;;;;;;18.00;99.90;;;;;;8363500;28;19928;-69
2023/08/29 15:17:16;;;;;;;;;;;18.00;99.90;;;;;;8372579;28;20322;-69
2023/08/29 15:21:19;;;;;;;;;;;18.00;99.90;;;;;;8363384;28;19933;-69
2023/08/29 15:25:21;;;;;;;;;;;18.00;99.90;;;;;;8347726;28;19932;-70
2023/08/29 15:29:22;;;;;;;;;;;18.10;99.90;;;;;;8372753;28;20320;-70
2023/08/29 15:33:24;;;;;;;;;;;18.10;99.90;;;;;;8367983;28;19925;-69
2023/08/29 15:37:26;;;;;;;;;;;18.10;99.90;;;;;;8381519;28;19974;-69
2023/08/29 15:41:28;;;;;;;;;;;18.20;99.90;;;;;;8369820;28;20351;-69
2023/08/29 15:45:30;;;;;;;;;;;18.20;99.90;;;;;;8370641;28;20356;-69
2023/08/29 15:49:31;;;;;;;;;;;18.30;99.90;;;;;;8371503;28;19924;-69
2023/08/29 15:53:36;;;;;;;;;;;18.40;99.90;;;;;;8370309;28;19956;-69
2023/08/29 15:57:38;;;;;;;;;;;18.40;99.90;;;;;;8370773;28;19925;-70
2023/08/29 16:01:39;;;;;;;;;;;18.50;99.90;;;;;;8378954;28;19929;-70
2023/08/29 16:05:41;;;;;;;;;;;18.60;99.90;;;;;;8358416;28;19951;-69
2023/08/29 16:09:43;;;;;;;;;;;18.70;99.90;;;;;;8367651;28;20407;-69
2023/08/29 16:13:45;;;;;;;;;;;18.80;99.90;;;;;;8381553;28;20264;-70
2023/08/29 16:17:47;;;;;;;;;;;19.00;99.90;;;;;;8374738;28;19937;-69
2023/08/29 16:21:50;;;;;;;;;;;19.20;99.90;;;;;;8378932;28;19933;-70
2023/08/29 16:25:52;;;;;;;;;;;19.40;99.90;;;;;;8368608;28;19935;-70
2023/08/29 16:29:54;;;;;;;;;;;19.60;99.90;;;;;;8382549;28;19925;-70
2023/08/29 16:33:56;;;;;;;;;;;19.70;99.90;;;;;;8378520;28;19924;-70
2023/08/29 16:38:01;;;;;;;;;;;19.80;99.90;;;;;;8376872;28;19925;-70
2023/08/29 16:42:02;;;;;;;;;;;19.80;99.90;;;;;;8373650;28;19936;-70
2023/08/29 16:46:04;;;;;;;;;;;19.80;99.90;;;;;;8375728;28;19936;-70
2023/08/29 16:50:06;;;;;;;;;;;19.90;99.90;;;;;;8368948;28;19942;-70
2023/08/29 16:54:08;;;;;;;;;;;19.80;99.90;;;;;;8374989;28;19964;-70
2023/08/29 16:58:09;;;;;;;;;;;19.70;99.90;;;;;;8366963;28;19993;-69
2023/08/29 17:02:11;;;;;;;;;;;19.60;99.90;;;;;;8371873;28;20053;-70
2023/08/29 17:06:13;;;;;;;;;;;19.60;99.90;;;;;;8382033;28;19924;-69
2023/08/29 17:10:15;;;;;;;;;;;19.50;99.90;;;;;;8371554;28;19978;-69
2023/08/29 17:14:18;;;;;;;;;;;19.40;99.90;;;;;;8373958;28;19936;-69
2023/08/29 17:18:20;;;;;;;;;;;19.30;99.90;;;;;;8369129;28;20384;-70
2023/08/29 17:22:22;;;;;;;;;;;19.10;99.90;;;;;;8368569;28;19924;-70
2023/08/29 17:26:23;;;;;;;;;;;19.00;99.90;;;;;;8378978;28;19932;-71
2023/08/29 17:30:25;;;;;;;;;;;19.00;99.90;;;;;;8376472;28;19928;-70
2023/08/29 17:34:27;;;;;;;;;;;18.90;99.90;;;;;;8383063;28;20283;-69
2023/08/29 17:38:28;;;;;;;;;;;18.80;99.90;;;;;;8377787;28;20372;-69
2023/08/29 17:42:30;;;;;;;;;;;18.70;99.90;;;;;;8372604;28;19932;-69
2023/08/29 17:46:32;;;;;;;;;;;18.70;99.90;;;;;;8373770;28;20372;-70
2023/08/29 17:50:33;;;;;;;;;;;18.60;99.90;;;;;;8371395;28;19943;-70
2023/08/29 17:54:35;;;;;;;;;;;18.60;99.90;;;;;;8373557;28;19928;-70
2023/08/29 17:58:37;;;;;;;;;;;18.50;99.90;;;;;;8374503;28;19924;-70
2023/08/29 18:02:38;;;;;;;;;;;18.40;99.90;;;;;;8365696;28;19971;-70
2023/08/29 18:06:40;;;;;;;;;;;18.40;99.90;;;;;;8367270;28;20249;-69
2023/08/29 18:10:42;;;;;;;;;;;18.30;99.90;;;;;;8352323;28;19925;-70
2023/08/29 18:14:44;;;;;;;;;;;18.20;99.90;;;;;;8382004;28;19928;-69
2023/08/29 18:18:45;;;;;;;;;;;18.00;99.90;;;;;;8367777;28;20311;-69
2023/08/29 18:22:47;;;;;;;;;;;17.80;99.90;;;;;;8377706;28;19935;-70
2023/08/29 18:26:49;;;;;;;;;;;17.70;99.90;;;;;;8379884;28;20275;-69
2023/08/29 18:30:51;;;;;;;;;;;17.60;99.90;;;;;;8371767;28;20329;-70
2023/08/29 18:34:54;;;;;;;;;;;17.50;99.90;;;;;;8367449;28;19932;-69
2023/08/29 18:38:55;;;;;;;;;;;17.50;99.90;;;;;;8373844;28;19940;-69
2023/08/29 18:42:58;;;;;;;;;;;17.40;99.90;;;;;;8374144;28;20356;-69
2023/08/29 18:46:59;;;;;;;;;;;17.40;99.90;;;;;;8377712;28;20333;-70
2023/08/29 18:51:01;;;;;;;;;;;17.30;99.90;;;;;;8377101;28;20290;-69
2023/08/29 18:55:03;;;;;;;;;;;17.30;99.90;;;;;;8370585;28;20037;-69
2023/08/29 18:59:05;;;;;;;;;;;17.20;99.90;;;;;;8373616;28;19928;-69
2023/08/29 19:03:09;;;;;;;;;;;17.10;99.90;;;;;;8371722;28;20725;-70
2023/08/29 19:07:10;;;;;;;;;;;17.00;99.90;;;;;;8369455;28;21927;-69
2023/08/29 19:11:14;;;;;;;;;;;17.00;99.90;;;;;;8373159;28;19971;-69
2023/08/29 19:15:16;;;;;;;;;;;16.90;99.90;;;;;;8375035;28;19925;-69
2023/08/29 19:19:18;;;;;;;;;;;16.80;99.90;;;;;;8374361;28;20007;-69
2023/08/29 19:23:19;;;;;;;;;;;16.70;99.90;;;;;;8377084;28;19937;-69
2023/08/29 19:27:21;;;;;;;;;;;16.70;99.90;;;;;;8389783;28;19932;-69
2023/08/29 19:31:27;;;;;;;;;;;16.60;99.90;;;;;;8374377;28;19974;-70
2023/08/29 19:35:30;;;;;;;;;;;16.50;99.90;;;;;;8368096;28;20292;-69
2023/08/29 19:39:32;;;;;;;;;;;16.50;99.90;;;;;;8380061;28;20284;-69
2023/08/29 19:43:33;;;;;;;;;;;16.40;99.90;;;;;;8388543;28;19978;-69
2023/08/29 19:47:35;;;;;;;;;;;16.30;99.90;;;;;;8379538;28;19932;-69
2023/08/29 19:51:37;;;;;;;;;;;16.20;99.90;;;;;;8373483;28;21223;-69
2023/08/29 19:55:38;;;;;;;;;;;16.20;99.90;;;;;;8381881;28;19924;-69
2023/08/29 19:59:40;;;;;;;;;;;16.20;99.90;;;;;;8379008;28;19928;-69
2023/08/29 20:03:42;;;;;;;;;;;16.10;99.90;;;;;;8365703;28;19929;-69
2023/08/29 20:07:43;;;;;;;;;;;16.00;99.90;;;;;;8378457;28;22058;-69
2023/08/29 20:11:45;;;;;;;;;;;16.00;99.90;;;;;;8382678;28;19932;-69
2023/08/29 20:15:47;;;;;;;;;;;15.90;99.90;;;;;;8374549;28;19978;-69
2023/08/29 20:19:49;;;;;;;;;;;15.80;99.90;;;;;;8366155;28;19952;-69
2023/08/29 20:23:51;;;;;;;;;;;15.70;99.90;;;;;;8364039;28;19925;-69
2023/08/29 20:28:03;;;;;;;;;;;15.70;99.90;;;;;;8372725;28;19932;-69
2023/08/29 20:32:04;;;;;;;;;;;15.70;99.90;;;;;;8373894;28;19925;-69
2023/08/29 20:36:06;;;;;;;;;;;15.60;99.90;;;;;;8377281;28;19924;-69
2023/08/29 20:40:08;;;;;;;;;;;15.50;99.90;;;;;;8370490;28;19925;-69
2023/08/29 20:44:11;;;;;;;;;;;15.50;99.90;;;;;;8362171;28;19928;-69
2023/08/29 20:48:13;;;;;;;;;;;15.50;99.90;;;;;;8371242;28;19929;-69
2023/08/29 20:52:14;;;;;;;;;;;15.40;99.90;;;;;;8353463;28;20441;-69
2023/08/29 20:56:16;;;;;;;;;;;15.30;99.90;;;;;;8374424;28;19966;-69
2023/08/29 21:00:18;;;;;;;;;;;15.30;99.90;;;;;;8375601;28;19978;-69
2023/08/29 21:04:19;;;;;;;;;;;15.20;99.90;;;;;;8353323;28;19971;-69
2023/08/29 21:08:22;;;;;;;;;;;15.20;99.90;;;;;;8378939;28;19935;-69
2023/08/29 21:12:24;;;;;;;;;;;15.10;99.90;;;;;;8359023;28;19925;-69
2023/08/29 21:16:26;;;;;;;;;;;15.10;99.90;;;;;;8379999;28;19928;-69
2023/08/29 21:20:28;;;;;;;;;;;15.00;99.90;;;;;;8371131;28;20257;-69
2023/08/29 21:24:29;;;;;;;;;;;15.00;99.90;;;;;;8368884;28;20292;-69
2023/08/29 21:28:31;;;;;;;;;;;15.00;99.90;;;;;;8364202;28;19925;-69
2023/08/29 21:32:33;;;;;;;;;;;15.00;99.90;;;;;;8372707;28;19925;-69
2023/08/29 21:36:37;;;;;;;;;;;14.90;99.90;;;;;;8370114;28;19925;-69
2023/08/29 21:40:39;;;;;;;;;;;14.90;99.90;;;;;;8366824;28;19928;-69
2023/08/29 21:44:41;;;;;;;;;;;14.90;99.90;;;;;;8369213;28;20362;-69
2023/08/29 21:48:42;;;;;;;;;;;14.80;99.90;;;;;;8377061;28;20380;-69
2023/08/29 21:52:44;;;;;;;;;;;14.80;99.90;;;;;;8379569;28;20295;-69
2023/08/29 21:56:45;;;;;;;;;;;14.70;99.90;;;;;;8373153;28;19924;-69
2023/08/29 22:00:50;;;;;;;;;;;14.60;99.90;;;;;;8369783;28;20279;-69
2023/08/29 22:04:52;;;;;;;;;;;14.60;99.90;;;;;;8368500;28;20336;-69
2023/08/29 22:08:53;;;;;;;;;;;14.60;99.90;;;;;;8349836;28;20356;-69
2023/08/29 22:12:55;;;;;;;;;;;14.60;99.90;;;;;;8373140;28;19932;-69
2023/08/29 22:16:57;;;;;;;;;;;14.50;99.90;;;;;;8375972;28;19932;-69
2023/08/29 22:21:02;;;;;;;;;;;14.50;99.90;;;;;;8364585;28;20198;-69
2023/08/29 22:25:04;;;;;;;;;;;14.50;99.90;;;;;;8373008;28;19928;-69
2023/08/29 22:29:06;;;;;;;;;;;14.50;99.90;;;;;;8366534;28;19926;-69
2023/08/29 22:33:08;;;;;;;;;;;14.50;99.90;;;;;;8370593;28;20411;-69
2023/08/29 22:37:10;;;;;;;;;;;14.50;99.90;;;;;;8365973;28;19983;-69
2023/08/29 22:41:11;;;;;;;;;;;14.50;99.90;;;;;;8364145;28;19925;-69
2023/08/29 22:45:25;;;;;;;;;;;14.50;99.90;;;;;;8369531;28;19954;-69
2023/08/29 22:49:27;;;;;;;;;;;14.50;99.90;;;;;;8365171;28;20011;-69
2023/08/29 22:53:28;;;;;;;;;;;14.50;99.90;;;;;;8370263;28;19979;-69
2023/08/29 22:57:30;;;;;;;;;;;14.60;99.90;;;;;;8373740;28;19924;-69
2023/08/29 23:01:32;;;;;;;;;;;14.60;99.90;;;;;;8366803;28;19951;-69
2023/08/29 23:05:41;;;;;;;;;;;14.60;99.90;;;;;;8367828;28;19954;-69
2023/08/29 23:09:42;;;;;;;;;;;14.50;99.90;;;;;;8370813;28;19925;-69
2023/08/29 23:13:44;;;;;;;;;;;14.60;99.90;;;;;;8353162;28;19929;-69
2023/08/29 23:17:46;;;;;;;;;;;14.50;99.90;;;;;;8366614;28;19929;-69
2023/08/29 23:21:47;;;;;;;;;;;14.50;99.90;;;;;;8354563;28;19924;-69
2023/08/29 23:25:54;;;;;;;;;;;14.40;99.90;;;;;;8375584;28;19935;-69
2023/08/29 23:29:56;;;;;;;;;;;14.40;99.90;;;;;;8369503;28;19932;-69
2023/08/29 23:33:57;;;;;;;;;;;14.40;99.90;;;;;;8361252;28;19928;-69
2023/08/29 23:37:59;;;;;;;;;;;14.40;99.90;;;;;;8369039;28;19991;-69
2023/08/29 23:42:01;;;;;;;;;;;14.40;99.90;;;;;;8378670;28;19931;-69
2023/08/29 23:46:03;;;;;;;;;;;14.40;99.90;;;;;;8356776;28;20051;-69
2023/08/29 23:50:04;;;;;;;;;;;14.30;99.90;;;;;;8364355;28;19928;-69
2023/08/29 23:54:06;;;;;;;;;;;14.30;99.90;;;;;;8369607;28;19936;-69
2023/08/29 23:58:08;;;;;;;;;;;14.20;99.90;;;;;;8372284;28;19928;-69
